Time;durP1;ratioP1;P1;durP2;ratioP2;P2;SDS_P1;SDS_P2;PMS_P1;PMS_P2;Temp;Humidity;BMP_temperature;BMP_pressure;BME280_temperature;BME280_humidity;BME280_pressure;Samples;Min_cycle;Max_cycle;Signal;HPM_P1;HPM_P2
2022/09/19 00:01:41;;;;;;;9.73;3.40;;;10.10;99.90;;;;;;5034971;28;20132;-60
2022/09/19 00:04:17;;;;;;;2.63;0.90;;;10.10;99.90;;;;;;5028621;28;20756;-59
2022/09/19 00:06:47;;;;;;;8.18;1.00;;;10.10;99.90;;;;;;5031224;28;20561;-58
2022/09/19 00:09:17;;;;;;;1.67;0.70;;;10.10;99.90;;;;;;5030131;28;20046;-58
2022/09/19 00:11:46;;;;;;;6.00;1.00;;;10.10;99.90;;;;;;5031157;28;20040;-60
2022/09/19 00:14:15;;;;;;;7.90;1.23;;;10.10;99.90;;;;;;5029710;28;20044;-59
2022/09/19 00:16:44;;;;;;;0.70;0.70;;;10.10;99.90;;;;;;5031207;28;20397;-58
2022/09/19 00:19:15;;;;;;;4.45;1.15;;;10.10;99.90;;;;;;5035382;28;20044;-60
2022/09/19 00:21:45;;;;;;;1.30;0.90;;;10.10;99.90;;;;;;5034345;28;20576;-58
2022/09/19 00:27:04;;;;;;;4.65;1.20;;;10.10;99.90;;;;;;5035191;28;20039;-59
2022/09/19 00:29:35;;;;;;;5.78;2.65;;;10.20;99.90;;;;;;5040915;28;20044;-59
2022/09/19 00:32:11;;;;;;;2.25;0.70;;;10.20;99.90;;;;;;5039418;28;20059;-59
2022/09/19 00:34:40;;;;;;;2.00;1.10;;;10.20;99.90;;;;;;5032455;28;20036;-59
2022/09/19 00:37:07;;;;;;;1.25;0.88;;;10.30;99.90;;;;;;5035911;28;20043;-59
2022/09/19 00:39:35;;;;;;;3.65;0.90;;;10.30;99.90;;;;;;5030509;28;20943;-59
2022/09/19 00:42:02;;;;;;;3.38;0.93;;;10.30;99.90;;;;;;5030619;28;20882;-60
2022/09/19 00:44:29;;;;;;;1.75;0.82;;;10.30;99.90;;;;;;5029724;28;20144;-58
2022/09/19 00:47:02;;;;;;;;;;;10.30;99.90;;;;;;5033278;28;20855;-57
2022/09/19 00:49:33;;;;;;;6.95;1.00;;;10.30;99.90;;;;;;5025796;28;20035;-59
2022/09/19 00:52:03;;;;;;;5.05;0.95;;;10.30;99.90;;;;;;5030355;27;20179;-60
2022/09/19 00:54:40;;;;;;;1.30;0.95;;;10.30;99.90;;;;;;5029722;28;20047;-59
2022/09/19 00:57:08;;;;;;;;;;;10.40;99.90;;;;;;5031067;28;20032;-59
2022/09/19 00:59:36;;;;;;;3.47;0.70;;;10.40;99.90;;;;;;5026925;28;20457;-60
2022/09/19 01:02:06;;;;;;;2.95;0.90;;;10.40;99.90;;;;;;5031414;28;20583;-59
2022/09/19 01:04:35;;;;;;;1.10;0.85;;;10.40;99.90;;;;;;5034046;28;20344;-60
2022/09/19 01:07:22;;;;;;;2.55;1.38;;;10.40;99.90;;;;;;5029076;28;20433;-59
2022/09/19 01:10:01;;;;;;;2.05;1.00;;;10.50;99.90;;;;;;5030589;28;20860;-59
2022/09/19 01:12:34;;;;;;;7.70;1.35;;;10.50;99.90;;;;;;5027488;28;20453;-59
2022/09/19 01:15:15;;;;;;;2.10;0.80;;;10.50;99.90;;;;;;5028853;28;20047;-59
2022/09/19 01:17:54;;;;;;;2.58;1.10;;;10.50;99.90;;;;;;5029426;28;20588;-58
2022/09/19 01:20:27;;;;;;;5.20;1.05;;;10.50;99.90;;;;;;5039555;28;20145;-60
2022/09/19 01:23:15;;;;;;;2.17;0.65;;;10.50;99.90;;;;;;5028397;28;20608;-58
2022/09/19 01:25:54;;;;;;;3.40;1.58;;;10.50;99.90;;;;;;5029601;28;20160;-60
2022/09/19 01:28:54;;;;;;;1.88;0.90;;;10.50;99.90;;;;;;5033782;28;20970;-58
2022/09/19 01:31:31;;;;;;;2.97;1.10;;;10.50;99.90;;;;;;5005936;28;20032;-59
2022/09/19 01:34:18;;;;;;;5.20;1.33;;;10.60;99.90;;;;;;5029899;28;20051;-59
2022/09/19 01:37:03;;;;;;;1.88;0.88;;;10.60;99.90;;;;;;5019593;28;20741;-57
2022/09/19 01:39:37;;;;;;;5.28;1.25;;;10.60;99.90;;;;;;5040916;28;20844;-59
2022/09/19 01:42:05;;;;;;;2.03;1.20;;;10.50;99.90;;;;;;5037501;28;20462;-58
2022/09/19 01:44:32;;;;;;;2.35;0.90;;;10.50;99.90;;;;;;5026115;28;20354;-59
2022/09/19 01:47:20;;;;;;;4.80;1.30;;;10.50;99.90;;;;;;5039499;28;20127;-59
2022/09/19 01:50:08;;;;;;;6.40;0.95;;;10.50;99.90;;;;;;5032047;28;20040;-60
2022/09/19 01:52:48;;;;;;;4.78;1.08;;;10.50;99.90;;;;;;5037565;28;20330;-59
2022/09/19 01:55:32;;;;;;;4.70;1.25;;;10.40;99.90;;;;;;5028917;28;20369;-59
2022/09/19 01:58:16;;;;;;;3.17;1.25;;;10.30;99.90;;;;;;5037612;28;20045;-59
2022/09/19 02:00:52;;;;;;;4.82;1.08;;;10.30;99.90;;;;;;5039619;28;20236;-59
2022/09/19 02:03:45;;;;;;;2.73;0.80;;;10.20;99.90;;;;;;5031400;28;20138;-59
2022/09/19 02:06:29;;;;;;;2.53;1.02;;;10.20;99.90;;;;;;5035530;28;20200;-62
2022/09/19 02:09:11;;;;;;;3.15;1.33;;;10.10;99.90;;;;;;5039276;28;20209;-59
2022/09/19 02:11:45;;;;;;;1.58;1.13;;;10.10;99.90;;;;;;5035116;28;20043;-59
2022/09/19 02:14:19;;;;;;;1.77;0.95;;;10.10;99.90;;;;;;5030958;28;20143;-58
2022/09/19 02:17:03;;;;;;;2.75;0.90;;;10.00;99.90;;;;;;5031993;28;20043;-59
2022/09/19 02:19:40;;;;;;;2.53;1.10;;;10.00;99.90;;;;;;5031256;28;20321;-60
2022/09/19 02:22:33;;;;;;;1.77;1.02;;;9.90;99.90;;;;;;5029476;28;20132;-59
2022/09/19 02:25:07;;;;;;;3.45;1.45;;;9.90;99.90;;;;;;5027620;28;20369;-58
2022/09/19 02:27:50;;;;;;;2.88;1.10;;;9.90;99.90;;;;;;5027449;28;20458;-60
2022/09/19 02:30:20;;;;;;;5.45;1.48;;;9.90;99.90;;;;;;5034850;28;20044;-59
2022/09/19 02:32:49;;;;;;;4.70;1.33;;;9.80;99.90;;;;;;5036574;28;20912;-58
2022/09/19 02:35:38;;;;;;;3.60;1.00;;;9.90;99.90;;;;;;5030717;28;20075;-60
2022/09/19 02:38:36;;;;;;;4.53;1.40;;;9.80;99.90;;;;;;5038233;28;20288;-59
2022/09/19 02:41:38;;;;;;;2.17;0.95;;;9.80;99.90;;;;;;5005050;28;20128;-59
2022/09/19 02:44:18;;;;;;;;;;;9.80;99.90;;;;;;5028936;28;20136;-59
2022/09/19 02:47:27;;;;;;;3.25;1.30;;;9.80;99.90;;;;;;5036340;28;19923;-59
2022/09/19 02:50:14;;;;;;;5.43;1.40;;;9.80;99.90;;;;;;5018834;28;20047;-59
2022/09/19 02:52:43;;;;;;;5.03;1.55;;;9.80;99.90;;;;;;5039355;28;20801;-60
2022/09/19 02:55:25;;;;;;;4.07;1.25;;;9.80;99.90;;;;;;5030944;28;20040;-60
2022/09/19 02:57:57;;;;;;;2.35;1.25;;;9.80;99.90;;;;;;5027639;28;20288;-59
2022/09/19 03:00:27;;;;;;;5.03;1.35;;;9.80;99.90;;;;;;5037236;28;20042;-59
2022/09/19 03:04:11;;;;;;;5.30;1.20;;;9.80;99.90;;;;;;5028828;28;20043;-59
2022/09/19 03:05:57;;;;;;;6.20;1.90;;;9.80;99.90;;;;;;5032615;28;20877;-59
2022/09/19 03:08:31;;;;;;;5.30;1.40;;;9.90;99.90;;;;;;5028446;28;20568;-58
2022/09/19 03:10:59;;;;;;;5.32;1.17;;;9.90;99.90;;;;;;5039558;28;20036;-59
2022/09/19 03:13:40;;;;;;;4.30;1.05;;;9.90;99.90;;;;;;5036980;28;20043;-59
2022/09/19 03:16:13;;;;;;;5.95;1.38;;;9.90;99.90;;;;;;5039775;28;20767;-58
2022/09/19 03:18:45;;;;;;;2.10;1.40;;;9.90;99.90;;;;;;5039484;28;20040;-59
2022/09/19 03:21:20;;;;;;;3.15;0.95;;;9.80;99.90;;;;;;5027472;28;20048;-59
2022/09/19 03:23:50;;;;;;;2.47;1.35;;;9.80;99.90;;;;;;5049492;27;20583;-58
2022/09/19 03:26:25;;;;;;;1.83;0.93;;;9.80;99.90;;;;;;5032527;27;20036;-58
2022/09/19 03:28:54;;;;;;;2.70;1.00;;;9.80;99.90;;;;;;5034647;28;20437;-59
2022/09/19 03:31:25;;;;;;;2.88;1.25;;;9.80;99.90;;;;;;5034152;28;20604;-59
2022/09/19 03:33:55;;;;;;;3.17;1.10;;;9.80;99.90;;;;;;5037114;28;20040;-58
2022/09/19 03:36:24;;;;;;;3.85;1.10;;;9.80;99.90;;;;;;5033316;28;20047;-58
2022/09/19 03:38:53;;;;;;;3.35;1.40;;;9.80;99.90;;;;;;5017449;28;20158;-59
2022/09/19 03:41:23;;;;;;;5.63;1.13;;;9.70;99.90;;;;;;5033409;28;20520;-59
2022/09/19 03:43:52;;;;;;;4.07;1.10;;;9.70;99.90;;;;;;5035281;28;20265;-59
2022/09/19 03:46:19;;;;;;;4.28;1.23;;;9.70;99.90;;;;;;5033710;28;20050;-59
2022/09/19 03:48:48;;;;;;;2.30;0.80;;;9.70;99.90;;;;;;5042852;28;20055;-61
2022/09/19 03:51:16;;;;;;;5.13;1.25;;;9.70;99.90;;;;;;5014244;28;20463;-60
2022/09/19 03:53:45;;;;;;;3.35;1.13;;;9.70;99.90;;;;;;5034015;28;20321;-59
2022/09/19 03:56:14;;;;;;;5.57;1.27;;;9.70;99.90;;;;;;5027290;28;20362;-62
2022/09/19 03:58:42;;;;;;;3.35;1.48;;;9.70;99.90;;;;;;5032467;28;20287;-59
2022/09/19 04:01:14;;;;;;;7.03;1.73;;;9.70;99.90;;;;;;5043543;28;20209;-59
2022/09/19 04:03:49;;;;;;;2.97;1.30;;;9.70;99.90;;;;;;5033589;28;20040;-60
2022/09/19 04:06:16;;;;;;;2.03;1.00;;;9.70;99.90;;;;;;5037861;28;20044;-59
2022/09/19 04:08:43;;;;;;;4.43;1.20;;;9.70;99.90;;;;;;5028521;28;20396;-59
2022/09/19 04:11:12;;;;;;;2.08;1.00;;;9.70;99.90;;;;;;5026393;28;20398;-58
2022/09/19 04:13:39;;;;;;;5.13;2.25;;;9.70;99.90;;;;;;5031527;28;20043;-60
2022/09/19 04:16:14;;;;;;;6.32;1.40;;;9.70;99.90;;;;;;5027746;28;20247;-58
2022/09/19 04:18:46;;;;;;;3.63;1.50;;;9.70;99.90;;;;;;5038550;28;20047;-59
2022/09/19 04:21:27;;;;;;;3.50;1.65;;;9.70;99.90;;;;;;5033823;28;20549;-59
2022/09/19 04:24:14;;;;;;;2.08;1.27;;;9.70;99.90;;;;;;5037432;28;20048;-59
2022/09/19 04:27:06;;;;;;;5.18;1.50;;;9.60;99.90;;;;;;5028662;28;20062;-59
2022/09/19 04:29:35;;;;;;;6.60;1.60;;;9.50;99.90;;;;;;5032636;28;20208;-59
2022/09/19 04:32:02;;;;;;;2.08;1.13;;;9.50;99.90;;;;;;5031862;28;20047;-56
2022/09/19 04:34:30;;;;;;;2.85;1.60;;;9.40;99.90;;;;;;5035943;28;20075;-55
2022/09/19 04:36:59;;;;;;;2.80;1.42;;;9.30;99.90;;;;;;5033140;28;20099;-58
2022/09/19 04:39:27;;;;;;;4.53;1.20;;;9.30;99.90;;;;;;5033064;28;20032;-56
2022/09/19 04:41:54;;;;;;;2.47;1.40;;;9.20;99.90;;;;;;5037380;28;20585;-56
2022/09/19 04:44:28;;;;;;;2.65;1.33;;;9.20;99.90;;;;;;5039420;28;20122;-59
2022/09/19 04:47:18;;;;;;;4.25;1.23;;;9.20;99.90;;;;;;5033027;28;20853;-58
2022/09/19 04:49:45;;;;;;;3.65;1.45;;;9.10;99.90;;;;;;5028364;28;20051;-58
2022/09/19 04:52:12;;;;;;;;;;;9.10;99.90;;;;;;5041370;28;20200;-58
2022/09/19 04:54:45;;;;;;;3.55;1.10;;;9.00;99.90;;;;;;5025765;28;20748;-58
2022/09/19 04:57:12;;;;;;;1.35;0.98;;;8.90;99.90;;;;;;5040172;28;20040;-61
2022/09/19 04:59:41;;;;;;;2.25;1.20;;;8.80;99.90;;;;;;5032796;28;20047;-58
2022/09/19 05:02:10;;;;;;;3.60;1.50;;;8.80;99.90;;;;;;5034067;28;20083;-59
2022/09/19 05:04:38;;;;;;;1.48;1.38;;;8.80;99.90;;;;;;5034267;28;20189;-59
2022/09/19 05:07:06;;;;;;;4.72;1.67;;;8.70;99.90;;;;;;5032017;28;20381;-57
2022/09/19 05:09:35;;;;;;;3.55;1.38;;;8.70;99.90;;;;;;5039843;28;20090;-56
2022/09/19 05:12:05;;;;;;;4.30;1.63;;;8.70;99.90;;;;;;5016799;28;20036;-59
2022/09/19 05:14:36;;;;;;;5.43;1.50;;;8.70;99.90;;;;;;5032054;28;20239;-59
2022/09/19 05:17:03;;;;;;;4.63;1.45;;;8.70;99.90;;;;;;4998849;28;20330;-57
2022/09/19 05:19:32;;;;;;;3.53;1.70;;;8.70;99.90;;;;;;5031743;28;20385;-56
2022/09/19 05:21:59;;;;;;;5.70;1.30;;;8.60;99.90;;;;;;5039989;28;20137;-56
2022/09/19 05:24:26;;;;;;;3.78;1.40;;;8.60;99.90;;;;;;5023397;28;20623;-58
2022/09/19 05:26:54;;;;;;;5.43;2.03;;;8.70;99.90;;;;;;5032755;28;20167;-59
2022/09/19 05:29:21;;;;;;;3.25;1.85;;;8.60;99.90;;;;;;5029990;28;20070;-58
2022/09/19 05:32:06;;;;;;;6.05;1.60;;;8.70;99.90;;;;;;5042947;27;20040;-57
2022/09/19 05:34:47;;;;;;;5.70;1.77;;;8.70;99.90;;;;;;5018403;28;20189;-58
2022/09/19 05:37:34;;;;;;;3.58;1.73;;;8.60;99.90;;;;;;5036310;28;20058;-57
2022/09/19 05:40:37;;;;;;;2.17;1.38;;;8.60;99.90;;;;;;4954774;28;20095;-58
2022/09/19 05:43:28;;;;;;;3.60;1.50;;;8.60;99.90;;;;;;5024038;27;20056;-56
2022/09/19 05:45:56;;;;;;;4.00;1.58;;;8.70;99.90;;;;;;5040505;28;20143;-57
2022/09/19 05:48:25;;;;;;;3.35;1.50;;;8.60;99.90;;;;;;5028522;28;20032;-58
2022/09/19 05:50:53;;;;;;;2.40;1.08;;;8.60;99.90;;;;;;5034161;28;20048;-58
2022/09/19 05:56:26;;;;;;;2.50;1.27;;;8.60;99.90;;;;;;5021145;28;20059;-58
2022/09/19 05:58:59;;;;;;;6.72;2.30;;;8.70;99.90;;;;;;5032941;28;20628;-58
2022/09/19 06:01:28;;;;;;;6.15;1.55;;;8.70;99.90;;;;;;5028039;28;20040;-58
2022/09/19 06:03:59;;;;;;;4.40;1.58;;;8.70;99.90;;;;;;5028288;28;20359;-57
2022/09/19 06:06:28;;;;;;;1.83;1.30;;;8.70;99.90;;;;;;5035674;28;20372;-58
2022/09/19 06:08:57;;;;;;;1.40;1.23;;;8.70;99.90;;;;;;5032605;28;20036;-58
2022/09/19 06:11:28;;;;;;;5.93;1.83;;;8.70;99.90;;;;;;5025701;28;20044;-58
2022/09/19 06:16:42;;;;;;;5.07;1.50;;;8.70;99.90;;;;;;5026717;28;20032;-57
2022/09/19 06:19:15;;;;;;;3.58;1.42;;;8.70;99.90;;;;;;5029146;28;20380;-57
2022/09/19 06:21:46;;;;;;;5.63;1.98;;;8.70;99.90;;;;;;5031041;28;20036;-56
2022/09/19 06:24:15;;;;;;;4.57;1.33;;;8.70;99.90;;;;;;5033687;28;20741;-57
2022/09/19 06:26:42;;;;;;;4.45;1.40;;;8.70;99.90;;;;;;5029351;28;20027;-57
2022/09/19 06:29:09;;;;;;;3.38;1.50;;;8.80;99.90;;;;;;5034770;28;20625;-57
2022/09/19 06:31:40;;;;;;;2.10;1.33;;;8.70;99.90;;;;;;5031935;28;20050;-57
2022/09/19 06:34:17;;;;;;;2.22;1.42;;;8.70;99.90;;;;;;5034663;28;20724;-57
2022/09/19 06:36:44;;;;;;;3.67;2.08;;;8.70;99.90;;;;;;5037889;28;20047;-58
2022/09/19 06:39:11;;;;;;;;;;;8.80;99.90;;;;;;5032150;28;20071;-57
2022/09/19 06:41:40;;;;;;;2.78;1.45;;;8.80;99.90;;;;;;5035694;28;19920;-56
2022/09/19 06:44:10;;;;;;;3.63;1.80;;;8.80;99.90;;;;;;5034815;28;20593;-58
2022/09/19 06:46:58;;;;;;;2.67;1.45;;;8.90;99.90;;;;;;5044579;28;20094;-59
2022/09/19 06:49:40;;;;;;;5.53;1.88;;;8.80;99.90;;;;;;5033524;28;20036;-57
2022/09/19 06:52:15;;;;;;;3.30;1.40;;;8.90;99.90;;;;;;5037991;28;20075;-58
2022/09/19 06:54:43;;;;;;;2.00;1.50;;;8.90;99.90;;;;;;5037125;28;20154;-58
2022/09/19 06:57:11;;;;;;;4.00;1.65;;;9.00;99.90;;;;;;5043264;28;20406;-57
2022/09/19 06:59:38;;;;;;;5.63;1.90;;;9.00;99.90;;;;;;5035412;28;20052;-58
2022/09/19 07:02:05;;;;;;;4.18;1.70;;;9.00;99.90;;;;;;5032362;28;20032;-55
2022/09/19 07:04:34;;;;;;;2.88;1.77;;;9.10;99.90;;;;;;5049915;27;20340;-55
2022/09/19 07:07:11;;;;;;;3.53;1.85;;;9.10;99.90;;;;;;5041141;28;20635;-58
2022/09/19 07:09:46;;;;;;;5.25;1.80;;;9.20;99.90;;;;;;5032025;28;20665;-57
2022/09/19 07:12:13;;;;;;;3.42;1.33;;;9.20;99.90;;;;;;5036072;28;20036;-57
2022/09/19 07:14:47;;;;;;;4.00;1.42;;;9.20;99.90;;;;;;5041944;28;20569;-56
2022/09/19 07:17:16;;;;;;;5.07;2.25;;;9.30;99.90;;;;;;5035012;28;20059;-56
2022/09/19 07:19:45;;;;;;;4.15;1.60;;;9.30;99.90;;;;;;5042808;28;20036;-57
2022/09/19 07:22:35;;;;;;;3.58;1.45;;;9.30;99.90;;;;;;5040181;28;20475;-55
2022/09/19 07:25:17;;;;;;;2.40;1.30;;;9.40;99.90;;;;;;5039581;28;20215;-55
2022/09/19 07:27:56;;;;;;;2.35;1.42;;;9.40;99.90;;;;;;5034627;28;20052;-57
2022/09/19 07:30:30;;;;;;;1.85;1.20;;;9.40;99.90;;;;;;5033934;28;20039;-55
2022/09/19 07:33:00;;;;;;;2.17;1.50;;;9.40;99.90;;;;;;5033092;28;20089;-57
2022/09/19 07:35:29;;;;;;;1.67;1.10;;;9.40;99.90;;;;;;5033074;28;20228;-56
2022/09/19 07:38:02;;;;;;;1.88;1.23;;;9.40;99.90;;;;;;5035655;28;20040;-55
2022/09/19 07:40:42;;;;;;;1.15;0.90;;;9.40;99.90;;;;;;5023393;28;20349;-57
2022/09/19 07:43:20;;;;;;;0.85;0.75;;;9.40;99.90;;;;;;5038192;28;20040;-57
2022/09/19 07:46:14;;;;;;;1.23;0.63;;;9.40;99.90;;;;;;5043499;28;20680;-56
2022/09/19 07:49:02;;;;;;;4.20;0.68;;;9.40;99.90;;;;;;5034666;28;20239;-55
2022/09/19 07:51:51;;;;;;;2.27;0.80;;;9.80;99.90;;;;;;5036294;28;20055;-59
2022/09/19 07:54:18;;;;;;;3.05;0.88;;;10.50;99.90;;;;;;5040646;28;20623;-56
2022/09/19 07:56:47;;;;;;;2.05;0.80;;;10.80;99.90;;;;;;5029766;28;20147;-57
2022/09/19 07:59:15;;;;;;;1.35;0.75;;;10.90;99.90;;;;;;5035238;28;20036;-55
2022/09/19 08:01:54;;;;;;;5.00;1.00;;;10.90;99.90;;;;;;5036380;28;20381;-56
2022/09/19 08:04:36;;;;;;;0.73;0.45;;;11.20;99.90;;;;;;5034441;28;20054;-57
2022/09/19 08:07:04;;;;;;;1.48;0.90;;;11.50;99.90;;;;;;5053779;28;20044;-58
2022/09/19 08:09:33;;;;;;;3.15;1.00;;;11.90;99.90;;;;;;5083673;28;20043;-54
2022/09/19 08:12:23;;;;;;;1.67;1.25;;;12.30;99.90;;;;;;5064910;28;20036;-56
2022/09/19 08:15:01;;;;;;;5.60;1.27;;;12.40;99.90;;;;;;5030167;28;20458;-57
2022/09/19 08:17:28;;;;;;;0.75;0.60;;;12.30;99.90;;;;;;5029591;28;20219;-59
2022/09/19 08:19:56;;;;;;;3.05;0.85;;;12.30;99.90;;;;;;5019576;28;20138;-56
2022/09/19 08:22:24;;;;;;;0.98;0.75;;;12.20;99.90;;;;;;5034492;28;20150;-55
2022/09/19 08:25:03;;;;;;;3.55;0.80;;;12.10;99.90;;;;;;5037692;27;20557;-55
2022/09/19 08:27:32;;;;;;;1.45;0.85;;;12.00;99.90;;;;;;5038292;28;20036;-56
2022/09/19 08:30:00;;;;;;;1.27;0.57;;;12.00;99.90;;;;;;5040396;28;20050;-57
2022/09/19 08:32:28;;;;;;;2.13;0.90;;;12.00;99.90;;;;;;5031388;28;20051;-58
2022/09/19 08:34:58;;;;;;;1.65;0.90;;;12.00;99.90;;;;;;5037279;28;20048;-58
2022/09/19 08:37:27;;;;;;;2.97;0.70;;;12.20;99.90;;;;;;5039684;28;20048;-57
2022/09/19 08:43:03;;;;;;;4.97;1.13;;;12.50;99.90;;;;;;5038765;28;20044;-57
2022/09/19 08:46:12;;;;;;;3.58;0.77;;;12.60;99.90;;;;;;5035179;28;20208;-60
2022/09/19 08:49:00;;;;;;;3.60;1.05;;;12.70;99.90;;;;;;5044144;28;20048;-59
2022/09/19 08:51:57;;;;;;;1.48;0.65;;;12.80;99.90;;;;;;5028754;28;20075;-59
2022/09/19 08:54:30;;;;;;;3.63;0.82;;;12.70;99.90;;;;;;5033605;28;20040;-60
2022/09/19 08:57:03;;;;;;;2.38;0.98;;;12.80;99.90;;;;;;5021377;28;20055;-60
2022/09/19 08:59:35;;;;;;;1.63;0.50;;;12.80;99.90;;;;;;5036359;28;20820;-59
2022/09/19 09:02:41;;;;;;;2.13;1.02;;;12.70;99.90;;;;;;5022314;28;20855;-59
2022/09/19 09:06:13;;;;;;;3.65;1.10;;;12.70;99.90;;;;;;5042579;28;20292;-60
2022/09/19 09:08:55;;;;;;;1.52;0.90;;;12.70;99.90;;;;;;5032130;28;20556;-57
2022/09/19 09:11:57;;;;;;;4.63;0.77;;;12.80;99.90;;;;;;5035192;28;20058;-59
2022/09/19 09:14:46;;;;;;;4.78;1.00;;;12.90;99.90;;;;;;5029709;28;20036;-57
2022/09/19 09:18:22;;;;;;;11.45;0.95;;;13.40;99.90;;;;;;5031676;28;20040;-58
2022/09/19 09:21:09;;;;;;;6.50;1.40;;;14.10;99.90;;;;;;5075364;28;20126;-56
2022/09/19 09:23:39;;;;;;;8.93;1.50;;;14.50;99.90;;;;;;5085790;28;20085;-56
2022/09/19 09:26:29;;;;;;;4.22;0.77;;;14.60;93.30;;;;;;5042615;28;20056;-58
2022/09/19 09:29:27;;;;;;;16.85;1.13;;;14.90;99.80;;;;;;5028621;28;20069;-57
2022/09/19 09:32:30;;;;;;;4.15;1.17;;;15.30;96.70;;;;;;5024956;28;20159;-60
2022/09/19 09:35:09;;;;;;;2.33;0.70;;;15.60;80.90;;;;;;5024299;28;20151;-60
2022/09/19 09:37:41;;;;;;;1.35;0.80;;;15.60;82.00;;;;;;5023131;28;20513;-57
2022/09/19 09:43:14;;;;;;;6.38;1.20;;;16.00;85.10;;;;;;5073670;28;20059;-60
2022/09/19 09:45:49;;;;;;;3.60;0.90;;;16.30;76.80;;;;;;5044857;27;20041;-56
2022/09/19 09:48:32;;;;;;;5.00;0.77;;;16.50;68.50;;;;;;5074920;28;20564;-58
2022/09/19 09:51:11;;;;;;;2.90;0.80;;;16.60;60.30;;;;;;5073046;28;20129;-57
2022/09/19 09:54:04;;;;;;;3.30;0.70;;;16.50;59.30;;;;;;5077101;28;20040;-56
2022/09/19 09:56:54;;;;;;;3.88;1.15;;;16.40;61.20;;;;;;5058759;28;20626;-56
2022/09/19 10:05:33;;;;;;;3.05;0.73;;;16.90;58.40;;;;;;5078047;28;20058;-58
2022/09/19 10:08:14;;;;;;;1.45;0.80;;;17.20;59.30;;;;;;5077989;28;20044;-58
2022/09/19 10:10:44;;;;;;;6.45;1.20;;;17.60;58.70;;;;;;5098831;28;20143;-58
2022/09/19 10:13:30;;;;;;;4.82;1.35;;;18.00;53.40;;;;;;5092005;28;20055;-58
2022/09/19 10:16:02;;;;;;;4.60;0.90;;;18.20;56.20;;;;;;5089077;28;20059;-58
2022/09/19 10:18:43;;;;;;;3.55;1.00;;;18.50;53.30;;;;;;5092496;28;20571;-57
2022/09/19 10:21:13;;;;;;;2.15;0.70;;;18.60;51.50;;;;;;5086600;28;20047;-58
2022/09/19 10:23:48;;;;;;;4.50;1.02;;;18.70;50.90;;;;;;5091071;28;20043;-57
2022/09/19 10:26:27;;;;;;;6.22;1.02;;;18.70;53.60;;;;;;5092796;28;20047;-56
2022/09/19 10:29:00;;;;;;;1.70;0.75;;;19.00;54.10;;;;;;5088381;28;20662;-55
2022/09/19 10:31:40;;;;;;;1.77;0.90;;;19.10;50.50;;;;;;5083672;28;20153;-57
2022/09/19 10:34:33;;;;;;;3.92;1.10;;;19.20;47.70;;;;;;5056158;28;20048;-57
2022/09/19 10:37:14;;;;;;;3.00;1.10;;;18.90;48.70;;;;;;5084649;28;20048;-58
2022/09/19 10:39:44;;;;;;;4.05;0.70;;;18.60;48.20;;;;;;5082521;28;20144;-56
2022/09/19 10:42:30;;;;;;;4.82;1.23;;;18.50;52.90;;;;;;5082962;28;20695;-57
2022/09/19 10:44:59;;;;;;;4.05;1.08;;;18.60;53.10;;;;;;5082993;28;20036;-60
2022/09/19 10:47:28;;;;;;;2.88;0.90;;;18.70;51.50;;;;;;5091773;28;20040;-59
2022/09/19 10:50:17;;;;;;;4.53;0.77;;;18.90;51.50;;;;;;5084418;28;20044;-58
2022/09/19 10:53:03;;;;;;;1.88;0.70;;;18.90;50.30;;;;;;5093832;28;20075;-56
2022/09/19 10:55:34;;;;;;;4.07;0.77;;;19.00;50.40;;;;;;5063934;28;20075;-55
2022/09/19 10:58:16;;;;;;;1.67;0.80;;;19.00;51.20;;;;;;5091834;28;20147;-55
2022/09/19 11:00:59;;;;;;;6.43;0.60;;;19.10;50.00;;;;;;5081796;28;20051;-55
2022/09/19 11:03:39;;;;;;;1.52;0.90;;;19.20;51.00;;;;;;5089696;28;20075;-56
2022/09/19 11:06:14;;;;;;;2.85;0.85;;;19.30;49.00;;;;;;5083036;28;20113;-56
2022/09/19 11:08:51;;;;;;;3.20;0.70;;;19.40;50.30;;;;;;5076234;28;20051;-56
2022/09/19 11:11:36;;;;;;;3.90;0.60;;;19.50;48.60;;;;;;5087043;28;20055;-60
2022/09/19 11:14:10;;;;;;;1.83;0.68;;;19.50;47.70;;;;;;5091006;28;20048;-60
2022/09/19 11:16:57;;;;;;;4.82;0.82;;;19.50;47.90;;;;;;5079913;28;20098;-54
2022/09/19 11:19:46;;;;;;;0.80;0.40;;;19.40;48.20;;;;;;5082508;28;20048;-55
2022/09/19 11:22:40;;;;;;;3.58;0.80;;;19.50;49.80;;;;;;5086655;28;20528;-61
2022/09/19 11:25:40;;;;;;;1.55;1.00;;;19.80;48.80;;;;;;5085443;28;20727;-60
2022/09/19 11:28:26;;;;;;;2.70;0.98;;;20.00;46.80;;;;;;5089956;28;20726;-58
2022/09/19 11:31:47;;;;;;;4.75;0.63;;;20.10;45.50;;;;;;5080792;28;20088;-56
2022/09/19 11:34:57;;;;;;;2.95;0.70;;;20.00;45.30;;;;;;5042878;28;20557;-61
2022/09/19 11:37:53;;;;;;;5.60;0.70;;;20.00;48.20;;;;;;5088117;28;20044;-59
2022/09/19 11:40:38;;;;;;;4.90;1.08;;;20.00;48.20;;;;;;5078092;28;20933;-60
2022/09/19 11:43:34;;;;;;;7.72;2.05;;;20.00;49.30;;;;;;5091207;28;20046;-61
2022/09/19 11:46:30;;;;;;;2.70;1.15;;;20.10;50.20;;;;;;5047434;28;20051;-58
2022/09/19 11:49:22;;;;;;;6.75;1.85;;;20.20;50.90;;;;;;5087101;28;20068;-59
2022/09/19 11:52:25;;;;;;;3.75;0.70;;;20.30;50.00;;;;;;5085001;28;20047;-61
2022/09/19 11:55:09;;;;;;;5.75;1.35;;;20.40;50.70;;;;;;5090736;28;20039;-60
2022/09/19 11:57:57;;;;;;;3.15;1.30;;;20.30;49.70;;;;;;5073285;28;20047;-60
2022/09/19 12:00:26;;;;;;;3.22;0.82;;;20.00;48.80;;;;;;5072986;28;20036;-59
2022/09/19 12:03:36;;;;;;;2.75;0.90;;;20.00;47.20;;;;;;5076874;28;20047;-56
2022/09/19 12:06:18;;;;;;;3.60;0.82;;;20.00;48.70;;;;;;5087995;28;20050;-54
2022/09/19 12:09:11;;;;;;;3.45;0.95;;;20.00;48.20;;;;;;5089212;28;20112;-58
2022/09/19 12:11:49;;;;;;;3.53;0.70;;;20.00;47.50;;;;;;5085792;28;20047;-57
2022/09/19 12:14:43;;;;;;;3.75;0.70;;;20.00;50.60;;;;;;5088723;28;20056;-58
2022/09/19 12:17:23;;;;;;;2.33;0.68;;;20.00;50.00;;;;;;5045349;28;20032;-57
2022/09/19 12:20:13;;;;;;;1.67;0.85;;;20.20;49.60;;;;;;5040486;28;20709;-55
2022/09/19 12:22:50;;;;;;;1.42;0.70;;;20.30;46.40;;;;;;5036094;28;20840;-56
2022/09/19 12:25:22;;;;;;;5.95;1.38;;;20.20;45.30;;;;;;5026824;28;20361;-58
2022/09/19 12:28:10;;;;;;;9.27;1.50;;;20.20;45.90;;;;;;5035238;28;20211;-58
2022/09/19 12:30:44;;;;;;;3.85;1.00;;;20.30;49.00;;;;;;5031751;28;20113;-57
2022/09/19 12:33:45;;;;;;;2.95;0.88;;;20.20;48.10;;;;;;5032507;28;20405;-57
2022/09/19 12:36:51;;;;;;;0.88;0.60;;;20.20;48.10;;;;;;5018984;28;20155;-57
2022/09/19 12:39:27;;;;;;;1.77;0.80;;;20.10;48.70;;;;;;5003439;28;20047;-61
2022/09/19 12:42:11;;;;;;;0.93;0.70;;;19.90;47.40;;;;;;4983695;28;20133;-61
2022/09/19 12:45:14;;;;;;;4.05;0.85;;;19.70;50.30;;;;;;5020549;28;20792;-60
2022/09/19 12:47:59;;;;;;;3.13;1.02;;;19.90;50.60;;;;;;5042285;28;20059;-59
2022/09/19 12:50:42;;;;;;;4.60;1.00;;;20.10;47.20;;;;;;5045424;28;20056;-57
2022/09/19 12:53:21;;;;;;;1.85;0.80;;;20.00;46.10;;;;;;5045439;28;20151;-59
2022/09/19 12:56:03;;;;;;;1.65;0.77;;;20.10;45.30;;;;;;5018384;28;20482;-59
2022/09/19 12:58:58;;;;;;;1.80;0.68;;;20.10;47.30;;;;;;4995958;28;20124;-60
2022/09/19 13:01:37;;;;;;;4.22;0.93;;;19.90;46.10;;;;;;4989851;28;20142;-59
2022/09/19 13:04:32;;;;;;;6.78;1.20;;;19.90;46.10;;;;;;4987891;28;20044;-60
2022/09/19 13:07:15;;;;;;;1.42;0.60;;;19.80;46.50;;;;;;4997247;28;20751;-60
2022/09/19 13:09:56;;;;;;;3.08;0.77;;;19.90;45.50;;;;;;4991895;28;20889;-59
2022/09/19 13:13:02;;;;;;;1.73;1.48;;;20.00;45.80;;;;;;4988130;28;20316;-59
2022/09/19 13:15:54;;;;;;;1.33;0.93;;;20.30;48.40;;;;;;4988995;28;20855;-60
2022/09/19 13:24:06;;;;;;;1.70;0.80;;;20.90;48.00;;;;;;4988065;28;20288;-59
2022/09/19 13:26:35;;;;;;;2.40;0.98;;;21.00;47.90;;;;;;4990825;28;20151;-60
2022/09/19 13:29:26;;;;;;;5.93;1.27;;;21.00;46.70;;;;;;4990862;28;20052;-59
2022/09/19 13:31:56;;;;;;;2.60;0.80;;;21.20;48.00;;;;;;4994056;28;20473;-60
2022/09/19 13:35:00;;;;;;;3.15;0.80;;;21.10;46.30;;;;;;4996450;28;20369;-60
2022/09/19 13:37:27;;;;;;;2.85;0.88;;;21.00;47.20;;;;;;4989857;28;20746;-58
2022/09/19 13:40:06;;;;;;;2.20;1.00;;;20.70;47.70;;;;;;4990451;28;20623;-59
2022/09/19 13:42:40;;;;;;;2.45;0.73;;;20.50;49.20;;;;;;4991091;28;20772;-59
2022/09/19 13:45:43;;;;;;;4.88;0.80;;;20.40;50.10;;;;;;4988131;28;20735;-59
2022/09/19 13:48:17;;;;;;;3.42;0.90;;;20.50;50.50;;;;;;4992956;28;20163;-59
2022/09/19 13:50:55;;;;;;;3.20;0.98;;;20.50;48.80;;;;;;4989065;28;20124;-60
2022/09/19 13:53:44;;;;;;;10.10;1.30;;;20.40;50.10;;;;;;4993583;28;20051;-59
2022/09/19 13:56:26;;;;;;;3.60;1.30;;;20.10;48.90;;;;;;4991458;28;20597;-59
2022/09/19 13:59:17;;;;;;;4.07;1.10;;;19.60;49.70;;;;;;4990157;28;20149;-60
2022/09/19 14:02:15;;;;;;;4.60;1.42;;;19.20;51.70;;;;;;4993022;28;20231;-59
2022/09/19 14:04:58;;;;;;;7.75;1.23;;;19.00;51.40;;;;;;4993508;28;20037;-60
2022/09/19 14:07:43;;;;;;;4.38;0.93;;;19.00;52.40;;;;;;4997525;28;20121;-60
2022/09/19 14:10:49;;;;;;;5.43;1.38;;;19.10;51.50;;;;;;4994273;28;20782;-60
2022/09/19 14:13:24;;;;;;;2.88;0.90;;;19.30;51.00;;;;;;4992843;28;20045;-60
2022/09/19 14:15:54;;;;;;;6.60;1.25;;;19.40;51.40;;;;;;4987799;28;20037;-60
2022/09/19 14:18:37;;;;;;;3.40;0.90;;;19.40;52.10;;;;;;4995982;28;20047;-60